Time;durP1;ratioP1;P1;durP2;ratioP2;P2;SDS_P1;SDS_P2;PMS_P1;PMS_P2;Temp;Humidity;BMP_temperature;BMP_pressure;BME280_temperature;BME280_humidity;BME280_pressure;Samples;Min_cycle;Max_cycle;Signal;HPM_P1;HPM_P2
2021/03/02 00:02:04;;;;;;;12.88;6.85;;;6.50;76.70;;;;;;5111085;28;20142;-79
2021/03/02 00:04:32;;;;;;;12.55;7.00;;;6.40;77.70;;;;;;5110895;28;20126;-78
2021/03/02 00:06:59;;;;;;;11.25;6.85;;;6.40;78.50;;;;;;5110982;28;20533;-78
2021/03/02 00:09:27;;;;;;;11.63;6.15;;;6.40;80.20;;;;;;5110792;28;20539;-79
2021/03/02 00:11:55;;;;;;;13.18;6.32;;;6.30;79.70;;;;;;5092962;28;20040;-79
2021/03/02 00:14:22;;;;;;;14.45;7.78;;;6.40;77.60;;;;;;5110952;28;20059;-79
2021/03/02 00:16:56;;;;;;;12.52;7.05;;;6.20;80.00;;;;;;5092573;28;20056;-79
2021/03/02 00:19:30;;;;;;;11.95;6.30;;;6.20;81.30;;;;;;5110898;28;20054;-79
2021/03/02 00:22:06;;;;;;;10.18;6.15;;;6.20;82.20;;;;;;5110546;28;20142;-79
2021/03/02 00:24:37;;;;;;;11.98;7.00;;;6.20;80.90;;;;;;5094657;28;20051;-79
2021/03/02 00:27:06;;;;;;;11.77;6.72;;;6.10;80.40;;;;;;5110001;28;20051;-79
2021/03/02 00:29:34;;;;;;;12.88;6.72;;;6.10;81.00;;;;;;5110618;28;20047;-79
2021/03/02 00:32:02;;;;;;;11.35;6.03;;;6.00;82.30;;;;;;5110447;28;20484;-79
2021/03/02 00:34:28;;;;;;;11.27;6.45;;;6.00;83.10;;;;;;5091864;28;20244;-79
2021/03/02 00:36:55;;;;;;;12.10;7.07;;;5.90;84.40;;;;;;5110497;28;20182;-79
2021/03/02 00:39:21;;;;;;;12.45;7.10;;;5.90;84.60;;;;;;5110256;28;20130;-78
2021/03/02 00:41:49;;;;;;;12.50;6.70;;;6.00;84.80;;;;;;5109971;28;20161;-78
2021/03/02 00:44:15;;;;;;;12.07;6.35;;;6.00;84.90;;;;;;5109973;28;20134;-78
2021/03/02 00:46:42;;;;;;;10.88;6.18;;;6.00;84.90;;;;;;5109873;28;20159;-79
2021/03/02 00:49:08;;;;;;;14.57;7.57;;;6.00;84.60;;;;;;5110206;28;20040;-79
2021/03/02 00:51:35;;;;;;;13.43;7.40;;;6.00;82.90;;;;;;5110233;28;20548;-79
2021/03/02 00:54:02;;;;;;;13.68;7.43;;;5.90;81.90;;;;;;5110372;28;20048;-77
2021/03/02 00:56:28;;;;;;;12.63;7.40;;;5.70;82.40;;;;;;5109347;28;20122;-77
2021/03/02 00:58:56;;;;;;;11.80;7.03;;;5.60;84.30;;;;;;5109783;28;20138;-77
2021/03/02 01:01:23;;;;;;;12.93;7.40;;;5.50;86.70;;;;;;5109898;28;20138;-77
2021/03/02 01:03:49;;;;;;;14.25;8.18;;;5.40;88.30;;;;;;5109741;28;20493;-77
2021/03/02 01:06:17;;;;;;;13.30;7.22;;;5.40;89.20;;;;;;5112040;28;20130;-78
2021/03/02 01:08:44;;;;;;;14.48;8.13;;;5.40;90.00;;;;;;5125333;28;20126;-78
2021/03/02 01:11:11;;;;;;;16.83;8.40;;;5.40;90.40;;;;;;5117142;27;20138;-77
2021/03/02 01:13:38;;;;;;;13.70;7.70;;;5.40;90.40;;;;;;5110299;28;20083;-78
2021/03/02 01:16:06;;;;;;;15.25;8.43;;;5.40;90.50;;;;;;5091686;28;20153;-77
2021/03/02 01:18:33;;;;;;;15.85;8.65;;;5.40;90.70;;;;;;5093970;28;20158;-77
2021/03/02 01:21:00;;;;;;;14.13;7.60;;;5.40;90.60;;;;;;5109749;28;20142;-76
2021/03/02 01:23:27;;;;;;;14.10;7.85;;;5.40;90.80;;;;;;5109896;28;20150;-77
2021/03/02 01:25:53;;;;;;;13.13;7.45;;;5.40;90.70;;;;;;5109882;28;20132;-78
2021/03/02 01:28:20;;;;;;;12.45;7.15;;;5.40;89.30;;;;;;5109417;28;20134;-77
2021/03/02 01:30:46;;;;;;;12.25;6.70;;;5.30;87.80;;;;;;5108963;28;20240;-77
2021/03/02 01:33:14;;;;;;;13.05;7.38;;;5.20;89.00;;;;;;5109341;28;20084;-78
2021/03/02 01:35:40;;;;;;;13.25;7.22;;;5.10;88.90;;;;;;5109836;28;20047;-78
2021/03/02 01:38:07;;;;;;;11.60;6.93;;;5.10;90.20;;;;;;5109413;28;20044;-77
2021/03/02 01:40:34;;;;;;;11.35;6.55;;;5.00;90.30;;;;;;5109514;28;20437;-77
2021/03/02 01:43:01;;;;;;;13.98;7.63;;;5.00;90.40;;;;;;5109126;28;20075;-77
2021/03/02 01:45:28;;;;;;;10.88;6.07;;;5.00;90.80;;;;;;5109571;28;20054;-77
2021/03/02 01:47:55;;;;;;;13.77;7.32;;;5.00;90.90;;;;;;5109480;28;20143;-77
2021/03/02 01:50:23;;;;;;;11.55;6.45;;;5.00;91.00;;;;;;5109630;28;20048;-77
2021/03/02 01:52:50;;;;;;;11.90;6.78;;;5.00;90.80;;;;;;5109840;28;20130;-77
2021/03/02 01:55:19;;;;;;;12.52;7.18;;;5.00;90.80;;;;;;5108869;28;20134;-78
2021/03/02 01:57:46;;;;;;;12.85;7.07;;;5.00;91.00;;;;;;5109084;28;20130;-78
2021/03/02 02:00:23;;;;;;;12.07;6.85;;;5.00;90.90;;;;;;5109040;28;20130;-78
2021/03/02 02:03:04;;;;;;;14.25;7.45;;;5.00;90.70;;;;;;5109380;28;20529;-78
2021/03/02 02:05:38;;;;;;;14.07;7.18;;;5.10;90.90;;;;;;5101920;28;20048;-78
2021/03/02 02:08:08;;;;;;;12.13;6.72;;;5.00;90.50;;;;;;5109525;28;20043;-78
2021/03/02 02:10:45;;;;;;;12.50;6.72;;;5.00;90.40;;;;;;5094357;28;20067;-78
2021/03/02 02:13:23;;;;;;;12.32;7.13;;;5.00;91.00;;;;;;5109184;28;20135;-78
2021/03/02 02:15:52;;;;;;;13.63;7.13;;;5.00;90.80;;;;;;5109218;28;20044;-78
2021/03/02 02:18:28;;;;;;;12.88;7.53;;;4.90;91.10;;;;;;5108852;28;20048;-77
2021/03/02 02:21:08;;;;;;;13.57;7.70;;;4.90;91.00;;;;;;5109448;28;20119;-77
2021/03/02 02:23:50;;;;;;;13.23;7.28;;;4.90;91.00;;;;;;5077165;28;20134;-77
2021/03/02 02:26:54;;;;;;;13.32;7.38;;;4.90;90.40;;;;;;5113051;28;20142;-77
2021/03/02 02:29:27;;;;;;;12.73;7.53;;;4.80;89.60;;;;;;5100374;28;20134;-77
2021/03/02 02:31:58;;;;;;;11.98;6.90;;;4.70;89.90;;;;;;5113193;28;20134;-77
2021/03/02 02:34:27;;;;;;;12.48;6.72;;;4.60;90.90;;;;;;5113040;28;20439;-77
2021/03/02 02:36:58;;;;;;;11.38;7.00;;;4.50;91.60;;;;;;5112422;28;20140;-77
2021/03/02 02:39:26;;;;;;;10.90;6.32;;;4.40;91.90;;;;;;5112962;28;20039;-77
2021/03/02 02:41:54;;;;;;;11.95;6.63;;;4.40;92.30;;;;;;5107772;28;20058;-77
2021/03/02 02:44:25;;;;;;;11.63;6.07;;;4.50;92.30;;;;;;5112521;28;20177;-77
2021/03/02 02:46:54;;;;;;;10.38;5.53;;;4.50;92.30;;;;;;5112630;28;20442;-77
2021/03/02 02:49:21;;;;;;;11.80;6.38;;;4.50;92.30;;;;;;5112345;28;20122;-77
2021/03/02 02:51:49;;;;;;;12.65;6.82;;;4.50;91.90;;;;;;5112391;28;20094;-77
2021/03/02 02:54:17;;;;;;;12.20;6.82;;;4.50;91.90;;;;;;5111860;28;20083;-77
2021/03/02 02:56:45;;;;;;;11.60;6.32;;;4.60;91.90;;;;;;5073840;28;20119;-77
2021/03/02 02:59:20;;;;;;;13.15;6.70;;;4.70;91.90;;;;;;5100877;28;20524;-77
2021/03/02 03:01:53;;;;;;;12.45;6.35;;;4.50;91.80;;;;;;5099480;28;20126;-77
2021/03/02 03:04:24;;;;;;;11.27;6.65;;;4.60;91.70;;;;;;5097242;28;20147;-77
2021/03/02 03:06:53;;;;;;;10.68;6.00;;;4.60;91.30;;;;;;5114975;28;20078;-77
2021/03/02 03:09:22;;;;;;;13.95;6.60;;;4.60;91.50;;;;;;5115027;28;20177;-77
2021/03/02 03:11:55;;;;;;;12.93;6.82;;;4.60;90.90;;;;;;5124645;27;20043;-77
2021/03/02 03:14:25;;;;;;;11.80;6.47;;;4.60;90.60;;;;;;5120307;27;20122;-77
2021/03/02 03:16:53;;;;;;;12.63;6.82;;;4.50;90.90;;;;;;5115069;28;20058;-77
2021/03/02 03:19:23;;;;;;;12.65;6.57;;;4.40;91.30;;;;;;5114985;28;20130;-77
2021/03/02 03:21:50;;;;;;;10.55;6.35;;;4.40;91.40;;;;;;5114789;28;20131;-77
2021/03/02 03:24:16;;;;;;;14.35;6.72;;;4.50;91.60;;;;;;5114933;28;20127;-77
2021/03/02 03:26:44;;;;;;;11.93;6.47;;;4.40;91.60;;;;;;5115338;28;20514;-77
2021/03/02 03:29:11;;;;;;;12.50;6.95;;;4.40;91.60;;;;;;5096415;28;20131;-77
2021/03/02 03:31:39;;;;;;;11.73;6.45;;;4.40;91.50;;;;;;5115008;28;20180;-78
2021/03/02 03:34:06;;;;;;;11.05;6.30;;;4.40;91.50;;;;;;5114990;28;20122;-77
2021/03/02 03:36:36;;;;;;;11.52;6.43;;;4.40;91.60;;;;;;5114597;28;20460;-78
2021/03/02 03:39:03;;;;;;;14.15;6.55;;;4.40;91.60;;;;;;5114941;28;20054;-78
2021/03/02 03:41:30;;;;;;;12.57;6.55;;;4.40;91.60;;;;;;5114677;28;20082;-78
2021/03/02 03:43:57;;;;;;;11.48;6.50;;;4.40;91.70;;;;;;5114958;28;20489;-77
2021/03/02 03:46:23;;;;;;;11.43;6.65;;;4.40;91.60;;;;;;5114711;28;20135;-77
2021/03/02 03:48:52;;;;;;;11.63;6.72;;;4.30;91.70;;;;;;5115052;28;20123;-77
2021/03/02 03:51:19;;;;;;;12.50;7.00;;;4.40;92.00;;;;;;5114010;28;20074;-77
2021/03/02 03:53:47;;;;;;;12.05;6.20;;;4.30;92.00;;;;;;5096351;28;20119;-76
2021/03/02 03:56:15;;;;;;;11.43;6.85;;;4.30;91.90;;;;;;5113867;28;20126;-77
2021/03/02 03:58:43;;;;;;;12.70;6.88;;;4.30;92.00;;;;;;5114027;28;20576;-78
2021/03/02 04:01:11;;;;;;;12.75;7.28;;;4.30;92.00;;;;;;5095720;28;20496;-77
2021/03/02 04:03:38;;;;;;;12.15;6.65;;;4.30;91.70;;;;;;5112207;28;20074;-78
2021/03/02 04:06:06;;;;;;;12.55;6.75;;;4.30;91.80;;;;;;5093723;28;20047;-77
2021/03/02 04:08:34;;;;;;;14.80;6.55;;;4.30;91.90;;;;;;5111638;28;20127;-77
2021/03/02 04:11:01;;;;;;;12.40;6.45;;;4.30;91.60;;;;;;5111998;28;20214;-76
2021/03/02 04:13:28;;;;;;;10.65;6.50;;;4.20;91.40;;;;;;5093997;28;20404;-77
2021/03/02 04:15:59;;;;;;;14.20;7.07;;;4.20;91.80;;;;;;5111514;28;20047;-77
2021/03/02 04:18:26;;;;;;;11.65;6.40;;;4.10;91.90;;;;;;5093585;28;20047;-77
2021/03/02 04:20:53;;;;;;;12.35;6.75;;;4.10;92.20;;;;;;5093535;28;20134;-77
2021/03/02 04:23:22;;;;;;;11.25;6.60;;;4.10;92.30;;;;;;5093386;28;20105;-77
2021/03/02 04:25:48;;;;;;;12.23;6.63;;;4.10;92.00;;;;;;5117550;27;20158;-77
2021/03/02 04:28:15;;;;;;;10.85;6.20;;;4.10;92.10;;;;;;5131660;27;20164;-77
2021/03/02 04:30:42;;;;;;;12.15;6.47;;;4.10;92.20;;;;;;5118497;27;20138;-77
2021/03/02 04:33:08;;;;;;;13.68;7.15;;;4.00;92.20;;;;;;5110645;28;20560;-77
2021/03/02 04:35:35;;;;;;;13.43;7.28;;;4.10;92.20;;;;;;5111486;28;20122;-77
2021/03/02 04:38:02;;;;;;;13.55;6.82;;;4.00;92.00;;;;;;5093466;28;20052;-77
2021/03/02 04:40:30;;;;;;;13.75;7.43;;;3.90;91.90;;;;;;5111690;28;20130;-76
2021/03/02 04:42:57;;;;;;;13.63;7.25;;;3.90;92.20;;;;;;5112087;28;20051;-77
2021/03/02 04:45:24;;;;;;;11.45;6.28;;;3.90;91.90;;;;;;5092624;28;20178;-77
2021/03/02 04:47:50;;;;;;;13.40;7.03;;;3.80;92.00;;;;;;5093113;28;20054;-77
2021/03/02 04:50:17;;;;;;;12.05;6.47;;;3.70;92.10;;;;;;5110790;28;20049;-77
2021/03/02 04:52:44;;;;;;;11.85;6.68;;;3.60;92.30;;;;;;5111413;28;20134;-77
2021/03/02 04:55:12;;;;;;;13.43;7.13;;;3.60;92.80;;;;;;5111026;28;20055;-77
2021/03/02 04:57:40;;;;;;;11.77;6.53;;;3.60;92.70;;;;;;5110991;28;20048;-77
2021/03/02 05:00:09;;;;;;;10.38;6.15;;;3.60;92.20;;;;;;5111836;28;20138;-76
2021/03/02 05:02:35;;;;;;;13.10;6.45;;;3.50;92.40;;;;;;5111960;28;20043;-77
2021/03/02 05:05:04;;;;;;;11.48;6.13;;;3.50;92.60;;;;;;5111461;28;20135;-77
2021/03/02 05:07:30;;;;;;;11.52;6.28;;;3.50;92.90;;;;;;5111912;28;20071;-76
2021/03/02 05:09:57;;;;;;;10.27;5.68;;;3.50;92.90;;;;;;5116023;28;20060;-77
2021/03/02 05:12:24;;;;;;;11.35;6.20;;;3.50;93.00;;;;;;5098554;28;20126;-76
2021/03/02 05:14:51;;;;;;;9.90;5.95;;;3.50;93.30;;;;;;5113405;28;20075;-77
2021/03/02 05:17:18;;;;;;;11.88;6.35;;;3.50;93.50;;;;;;5112063;28;20075;-76
2021/03/02 05:19:44;;;;;;;11.75;6.80;;;3.50;93.80;;;;;;5111667;28;20485;-77
2021/03/02 05:22:11;;;;;;;11.45;6.50;;;3.50;93.90;;;;;;5111817;28;20150;-78
2021/03/02 05:24:37;;;;;;;11.88;5.90;;;3.50;93.50;;;;;;5112766;28;20466;-77
2021/03/02 05:27:05;;;;;;;11.73;7.07;;;3.50;93.60;;;;;;5111985;28;20078;-77
2021/03/02 05:29:32;;;;;;;13.13;6.68;;;3.60;93.50;;;;;;5092241;28;20123;-76
2021/03/02 05:31:59;;;;;;;10.98;6.25;;;3.60;92.90;;;;;;5108139;28;20052;-77
2021/03/02 05:34:26;;;;;;;10.40;6.22;;;3.50;92.80;;;;;;5113295;28;20044;-77
2021/03/02 05:36:53;;;;;;;12.15;6.47;;;3.40;92.70;;;;;;5093167;28;20122;-76
2021/03/02 05:39:20;;;;;;;13.05;6.47;;;3.30;92.40;;;;;;5117066;28;20078;-75
2021/03/02 05:41:47;;;;;;;11.18;6.07;;;3.30;92.60;;;;;;5115966;28;20135;-75
2021/03/02 05:44:14;;;;;;;11.95;6.55;;;3.10;93.00;;;;;;5093598;28;20055;-76
2021/03/02 05:46:43;;;;;;;11.07;6.35;;;3.10;93.50;;;;;;5100544;28;20071;-75
2021/03/02 05:49:12;;;;;;;11.35;6.45;;;3.20;93.50;;;;;;5115715;28;20054;-75
2021/03/02 05:51:41;;;;;;;11.60;6.55;;;3.20;93.00;;;;;;5113658;28;20048;-75
2021/03/02 05:54:09;;;;;;;12.27;6.65;;;3.10;93.20;;;;;;5118267;28;20051;-75
2021/03/02 05:56:38;;;;;;;11.20;6.10;;;3.10;93.50;;;;;;5120187;28;20111;-76
2021/03/02 05:59:05;;;;;;;12.20;6.65;;;3.10;93.80;;;;;;5123224;28;20056;-76
2021/03/02 06:01:32;;;;;;;12.02;6.45;;;3.10;93.80;;;;;;5124443;28;20067;-75
2021/03/02 06:04:00;;;;;;;13.45;7.05;;;3.20;93.40;;;;;;5124166;28;20404;-76
2021/03/02 06:06:27;;;;;;;10.57;6.03;;;3.00;93.30;;;;;;5106179;28;20048;-76
2021/03/02 06:08:54;;;;;;;12.18;6.50;;;3.10;93.60;;;;;;5124207;28;20075;-76
2021/03/02 06:11:31;;;;;;;11.60;6.60;;;3.10;93.70;;;;;;5104667;28;20048;-77
2021/03/02 06:14:18;;;;;;;13.25;6.90;;;3.10;93.60;;;;;;5122039;28;20403;-76
2021/03/02 06:16:47;;;;;;;12.35;6.50;;;3.10;93.40;;;;;;5124421;28;20039;-76
2021/03/02 06:19:14;;;;;;;13.43;6.40;;;3.10;93.60;;;;;;5124278;28;20071;-76
2021/03/02 06:21:42;;;;;;;11.80;6.25;;;3.00;93.90;;;;;;5124834;28;20087;-76
2021/03/02 06:24:10;;;;;;;12.07;6.38;;;3.10;94.10;;;;;;5124370;28;20075;-77
2021/03/02 06:26:38;;;;;;;12.57;6.82;;;3.10;93.90;;;;;;5124322;28;20085;-77
2021/03/02 06:29:14;;;;;;;11.90;6.43;;;3.10;93.40;;;;;;5124392;28;20047;-76
2021/03/02 06:31:42;;;;;;;12.02;6.43;;;3.10;93.90;;;;;;5140498;27;20085;-76
2021/03/02 06:34:12;;;;;;;10.40;6.07;;;3.10;94.00;;;;;;5124587;28;20502;-76
2021/03/02 06:36:41;;;;;;;13.32;6.65;;;3.10;94.10;;;;;;5124571;28;20138;-76
2021/03/02 06:39:30;;;;;;;12.27;6.57;;;3.10;94.20;;;;;;5124118;28;20067;-76
2021/03/02 06:42:19;;;;;;;12.52;6.82;;;3.20;94.20;;;;;;5123920;28;20055;-77
2021/03/02 06:44:48;;;;;;;12.35;6.80;;;3.20;94.20;;;;;;5123977;28;20075;-76
2021/03/02 06:47:30;;;;;;;12.57;6.65;;;3.30;94.30;;;;;;5116339;28;20044;-76
2021/03/02 06:49:57;;;;;;;12.25;6.57;;;3.30;94.40;;;;;;5114110;28;20139;-76
2021/03/02 06:52:24;;;;;;;11.48;6.50;;;3.30;94.20;;;;;;5096092;28;20152;-77
2021/03/02 06:54:52;;;;;;;12.38;6.78;;;3.40;94.20;;;;;;5112949;28;20122;-76
2021/03/02 06:57:23;;;;;;;11.48;7.28;;;3.40;94.00;;;;;;5114013;28;20074;-76
2021/03/02 06:59:57;;;;;;;12.40;6.63;;;3.50;93.30;;;;;;5113566;28;20655;-76
2021/03/02 07:02:35;;;;;;;12.95;7.15;;;3.50;93.00;;;;;;5095462;28;20044;-77
2021/03/02 07:05:13;;;;;;;12.75;6.65;;;3.50;93.60;;;;;;5113567;28;20130;-76
2021/03/02 07:07:43;;;;;;;12.85;7.03;;;3.50;93.90;;;;;;5129249;27;20135;-76
2021/03/02 07:10:13;;;;;;;12.20;6.75;;;3.50;94.20;;;;;;5113223;28;20134;-77
2021/03/02 07:12:41;;;;;;;12.27;6.72;;;3.50;94.40;;;;;;5113158;28;20040;-77
2021/03/02 07:15:10;;;;;;;12.75;7.20;;;3.60;94.10;;;;;;5113278;28;20047;-77
2021/03/02 07:17:40;;;;;;;13.57;7.30;;;3.60;94.00;;;;;;5113240;28;20557;-76
2021/03/02 07:20:10;;;;;;;12.20;6.65;;;3.70;93.80;;;;;;5113615;28;20113;-77
2021/03/02 07:22:37;;;;;;;14.73;6.90;;;3.70;93.70;;;;;;5112505;28;20196;-77
2021/03/02 07:25:09;;;;;;;15.88;7.60;;;3.60;93.90;;;;;;5112386;28;20079;-76
2021/03/02 07:27:41;;;;;;;14.50;7.05;;;3.70;93.80;;;;;;5113505;28;20105;-76
2021/03/02 07:30:09;;;;;;;12.85;7.40;;;3.80;94.00;;;;;;5113116;28;20079;-76
2021/03/02 07:32:39;;;;;;;11.73;6.82;;;3.80;94.00;;;;;;5093907;28;20048;-78
2021/03/02 07:35:08;;;;;;;12.25;6.55;;;3.90;94.10;;;;;;5111852;28;20131;-77
2021/03/02 07:37:35;;;;;;;12.77;7.10;;;3.90;94.10;;;;;;5111457;28;20126;-77
2021/03/02 07:40:04;;;;;;;14.27;7.38;;;3.90;94.20;;;;;;5111111;28;20047;-77
2021/03/02 07:42:32;;;;;;;12.32;7.25;;;4.00;94.20;;;;;;5112909;28;20083;-77
2021/03/02 07:45:09;;;;;;;13.52;7.15;;;4.10;94.30;;;;;;5113251;28;20142;-76
2021/03/02 07:47:44;;;;;;;16.33;7.13;;;4.20;94.20;;;;;;5111940;28;20050;-77
2021/03/02 07:50:23;;;;;;;15.35;7.57;;;4.30;94.20;;;;;;5112826;28;20054;-76
2021/03/02 07:53:22;;;;;;;15.55;7.38;;;4.40;94.10;;;;;;5112688;28;20058;-76
2021/03/02 07:56:23;;;;;;;12.65;7.78;;;4.40;93.80;;;;;;5094909;28;20047;-75
2021/03/02 07:59:20;;;;;;;13.05;7.40;;;4.50;93.70;;;;;;5112653;28;20055;-76
2021/03/02 08:02:17;;;;;;;11.35;7.10;;;4.50;93.80;;;;;;5094307;28;20043;-76
2021/03/02 08:04:48;;;;;;;14.15;8.27;;;4.50;93.80;;;;;;5112723;28;20460;-76
2021/03/02 08:07:24;;;;;;;13.90;7.97;;;4.60;93.90;;;;;;5129431;28;20051;-77
2021/03/02 08:09:53;;;;;;;13.40;7.68;;;4.70;93.90;;;;;;5124193;28;20517;-77
2021/03/02 08:12:34;;;;;;;13.85;8.05;;;4.70;93.80;;;;;;5126210;28;20082;-77
2021/03/02 08:15:39;;;;;;;14.50;7.88;;;4.80;93.80;;;;;;5124722;28;20116;-77
2021/03/02 08:18:35;;;;;;;14.60;7.75;;;4.80;93.70;;;;;;5103636;28;20040;-75
2021/03/02 08:21:08;;;;;;;15.45;8.65;;;4.90;93.90;;;;;;5131412;28;20051;-75
2021/03/02 08:23:55;;;;;;;16.38;9.40;;;4.90;93.70;;;;;;5089437;28;20046;-77
2021/03/02 08:26:33;;;;;;;14.13;8.43;;;5.10;93.40;;;;;;5073898;28;20117;-76
2021/03/02 08:29:13;;;;;;;14.00;8.15;;;5.00;93.60;;;;;;5091824;28;20059;-75
2021/03/02 08:31:43;;;;;;;15.85;9.32;;;5.00;93.90;;;;;;5099116;28;20039;-74
2021/03/02 08:34:16;;;;;;;15.68;9.45;;;5.10;93.90;;;;;;5111439;28;20043;-75
2021/03/02 08:36:43;;;;;;;16.02;8.57;;;5.20;93.80;;;;;;5094419;28;20120;-76
2021/03/02 08:39:12;;;;;;;14.80;7.95;;;5.20;93.90;;;;;;5111804;28;20102;-75
2021/03/02 08:41:42;;;;;;;14.27;8.27;;;5.20;94.10;;;;;;5111493;28;20043;-76
2021/03/02 08:44:18;;;;;;;15.35;8.98;;;5.30;94.10;;;;;;5111637;28;20051;-74
2021/03/02 08:46:49;;;;;;;14.45;8.02;;;5.40;94.00;;;;;;5113092;28;20152;-75
2021/03/02 08:49:16;;;;;;;14.68;8.30;;;5.50;93.90;;;;;;5116977;28;20138;-75
2021/03/02 08:51:43;;;;;;;16.30;8.43;;;5.60;93.80;;;;;;5117445;28;20344;-77
2021/03/02 08:54:09;;;;;;;15.30;8.43;;;5.60;93.70;;;;;;5118736;28;20154;-77
2021/03/02 08:56:36;;;;;;;14.98;8.48;;;5.70;93.60;;;;;;5118251;28;20067;-77
2021/03/02 08:59:09;;;;;;;14.60;8.68;;;5.80;93.60;;;;;;5118187;28;20142;-76
2021/03/02 09:01:37;;;;;;;14.75;7.70;;;5.80;93.70;;;;;;5117511;28;20123;-76
2021/03/02 09:04:16;;;;;;;14.13;8.13;;;6.00;93.50;;;;;;5111135;28;20467;-76
2021/03/02 09:06:44;;;;;;;17.02;8.73;;;6.10;93.40;;;;;;5099316;28;20048;-75
2021/03/02 09:09:12;;;;;;;15.18;8.40;;;6.10;93.20;;;;;;5100631;28;20048;-75
2021/03/02 09:11:41;;;;;;;15.40;8.88;;;6.10;93.00;;;;;;5081459;28;20054;-76
2021/03/02 09:14:13;;;;;;;15.40;8.23;;;6.20;93.10;;;;;;5100552;28;20065;-76
2021/03/02 09:16:46;;;;;;;14.82;8.07;;;6.30;93.00;;;;;;5119899;28;20070;-75
2021/03/02 09:19:23;;;;;;;15.02;8.20;;;6.30;92.90;;;;;;5118864;28;20063;-76
2021/03/02 09:21:56;;;;;;;15.88;7.65;;;6.40;92.80;;;;;;5120291;28;20099;-75
2021/03/02 09:24:26;;;;;;;14.68;8.32;;;6.50;93.20;;;;;;5112360;28;20152;-75
2021/03/02 09:26:59;;;;;;;13.77;8.07;;;6.60;92.90;;;;;;5111264;28;20047;-76
2021/03/02 09:29:28;;;;;;;14.82;8.20;;;6.60;92.80;;;;;;5092192;28;20134;-75
2021/03/02 09:32:00;;;;;;;13.48;7.88;;;6.70;92.70;;;;;;5111361;28;20039;-75
2021/03/02 09:34:35;;;;;;;13.00;7.78;;;6.80;92.70;;;;;;5115655;28;20146;-75
2021/03/02 09:37:07;;;;;;;15.25;8.23;;;6.90;92.60;;;;;;5115156;28;20129;-74
2021/03/02 09:39:35;;;;;;;14.45;8.48;;;7.00;92.60;;;;;;5115109;28;20177;-75
2021/03/02 09:42:13;;;;;;;13.30;7.93;;;7.10;92.40;;;;;;5114500;28;20138;-74
2021/03/02 09:44:46;;;;;;;15.77;9.13;;;7.20;92.30;;;;;;5114299;28;20127;-74
2021/03/02 09:47:18;;;;;;;13.98;8.25;;;7.30;92.40;;;;;;5114398;28;20135;-74
2021/03/02 09:49:55;;;;;;;14.30;8.45;;;7.30;92.10;;;;;;5096668;28;20044;-74
2021/03/02 09:52:32;;;;;;;15.02;8.40;;;7.40;92.10;;;;;;5095788;28;20043;-74
2021/03/02 09:55:23;;;;;;;14.15;8.30;;;7.50;91.90;;;;;;5114209;28;20485;-75
2021/03/02 09:57:53;;;;;;;14.07;8.18;;;7.60;91.90;;;;;;5114691;28;20451;-75
2021/03/02 10:00:25;;;;;;;14.60;8.70;;;7.60;91.60;;;;;;5114555;28;20412;-75
2021/03/02 10:02:55;;;;;;;14.35;8.55;;;7.80;91.60;;;;;;5114017;28;20134;-74
2021/03/02 10:05:44;;;;;;;13.98;8.55;;;7.90;91.40;;;;;;5114338;28;20048;-75
2021/03/02 10:08:33;;;;;;;14.95;8.75;;;7.90;91.30;;;;;;5113649;28;20066;-74
2021/03/02 10:11:04;;;;;;;13.10;8.00;;;8.00;91.10;;;;;;5113977;28;20075;-75
2021/03/02 10:13:34;;;;;;;14.48;8.20;;;8.10;91.10;;;;;;5114197;28;20128;-75
2021/03/02 10:16:16;;;;;;;17.27;9.75;;;8.20;90.90;;;;;;5096771;28;20134;-75
2021/03/02 10:18:55;;;;;;;15.40;8.80;;;8.30;90.90;;;;;;5096964;28;20569;-74
2021/03/02 10:21:25;;;;;;;50.20;24.42;;;8.50;90.80;;;;;;5108484;28;20071;-75
2021/03/02 10:23:55;;;;;;;20.85;11.35;;;8.50;90.60;;;;;;5112639;28;20513;-75
2021/03/02 10:26:30;;;;;;;14.43;8.40;;;8.70;90.40;;;;;;5122589;28;20142;-75
2021/03/02 10:28:58;;;;;;;16.63;9.50;;;8.70;90.40;;;;;;5095847;28;20135;-77
2021/03/02 10:31:25;;;;;;;15.55;8.88;;;8.90;90.10;;;;;;5113913;28;20131;-75
2021/03/02 10:33:52;;;;;;;14.02;7.80;;;8.90;89.80;;;;;;5113590;28;20117;-76
2021/03/02 10:36:26;;;;;;;13.32;8.20;;;9.00;89.70;;;;;;5113787;28;20134;-75
2021/03/02 10:38:54;;;;;;;14.38;7.80;;;9.10;89.40;;;;;;5114030;28;20048;-75
2021/03/02 10:41:22;;;;;;;16.05;8.50;;;9.20;89.00;;;;;;5113865;28;20048;-77
2021/03/02 10:43:50;;;;;;;13.85;8.23;;;9.30;88.60;;;;;;5112926;28;20556;-77
2021/03/02 10:46:18;;;;;;;14.95;8.43;;;9.40;87.90;;;;;;5113875;28;20059;-78
2021/03/02 10:48:45;;;;;;;13.68;8.32;;;9.50;87.70;;;;;;5113664;28;20050;-76
2021/03/02 10:51:12;;;;;;;13.85;7.85;;;9.60;87.10;;;;;;5095785;28;20055;-76
2021/03/02 10:53:40;;;;;;;12.25;7.55;;;9.60;86.40;;;;;;5113733;28;20126;-77
2021/03/02 10:56:07;;;;;;;13.15;7.40;;;9.70;86.00;;;;;;5112111;28;20498;-76
2021/03/02 10:58:35;;;;;;;14.77;8.65;;;9.80;85.70;;;;;;5113366;28;20099;-76
2021/03/02 11:01:03;;;;;;;14.15;8.10;;;9.90;85.20;;;;;;5113183;28;20075;-77
2021/03/02 11:03:30;;;;;;;13.48;8.25;;;9.90;84.60;;;;;;5095556;28;20048;-77
2021/03/02 11:05:58;;;;;;;15.18;9.30;;;10.00;83.40;;;;;;5095380;28;20047;-77
2021/03/02 11:08:25;;;;;;;13.10;8.15;;;10.10;83.60;;;;;;5113128;28;20130;-77
2021/03/02 11:10:55;;;;;;;13.68;8.27;;;10.10;83.10;;;;;;5095003;28;20138;-77
2021/03/02 11:13:22;;;;;;;13.02;8.23;;;10.20;83.00;;;;;;5094952;28;20132;-77
2021/03/02 11:15:49;;;;;;;15.48;8.27;;;10.20;82.60;;;;;;5113055;28;20079;-76
2021/03/02 11:18:16;;;;;;;12.75;7.68;;;10.30;81.80;;;;;;5095288;28;20051;-76
2021/03/02 11:20:44;;;;;;;18.73;10.25;;;10.40;82.30;;;;;;5094956;28;20130;-77
2021/03/02 11:23:12;;;;;;;14.80;8.55;;;10.50;81.20;;;;;;5113214;28;20051;-77
2021/03/02 11:25:39;;;;;;;13.63;8.55;;;10.50;80.40;;;;;;5112562;28;20047;-77
2021/03/02 11:28:09;;;;;;;13.40;7.65;;;10.60;79.80;;;;;;5112980;28;20465;-77
2021/03/02 11:30:35;;;;;;;13.40;7.35;;;10.70;79.30;;;;;;5112823;28;20695;-77
2021/03/02 11:33:02;;;;;;;11.70;7.05;;;10.80;78.60;;;;;;5113443;28;20086;-77
2021/03/02 11:35:29;;;;;;;13.95;7.85;;;10.80;78.10;;;;;;5113532;28;20522;-77
2021/03/02 11:37:56;;;;;;;12.45;7.85;;;10.90;77.90;;;;;;5112872;28;20116;-77
2021/03/02 11:40:24;;;;;;;12.52;7.40;;;11.00;78.20;;;;;;5094725;28;20059;-77
2021/03/02 11:42:53;;;;;;;12.02;7.22;;;11.10;77.90;;;;;;5112435;28;20051;-77
2021/03/02 11:45:22;;;;;;;14.90;7.60;;;11.20;76.90;;;;;;5107109;28;20382;-77
2021/03/02 11:47:49;;;;;;;12.88;7.10;;;11.30;75.80;;;;;;5099507;28;20702;-77
2021/03/02 11:50:17;;;;;;;14.85;8.30;;;11.30;75.20;;;;;;5094441;28;20119;-77
2021/03/02 11:52:43;;;;;;;13.23;7.32;;;11.50;74.50;;;;;;5111512;28;20127;-78
2021/03/02 11:55:12;;;;;;;13.27;7.53;;;11.60;73.20;;;;;;5112297;28;20552;-78
2021/03/02 11:57:39;;;;;;;12.75;7.63;;;11.70;72.50;;;;;;5109435;28;20051;-78
2021/03/02 12:00:09;;;;;;;12.23;7.20;;;11.80;72.20;;;;;;5112016;28;20450;-78
2021/03/02 12:02:37;;;;;;;13.88;7.40;;;11.90;71.20;;;;;;5111888;28;20134;-77
2021/03/02 12:05:05;;;;;;;12.32;7.78;;;12.00;69.90;;;;;;5076963;28;20048;-77
2021/03/02 12:07:32;;;;;;;11.02;6.70;;;12.10;68.30;;;;;;5111442;28;20098;-77
2021/03/02 12:09:59;;;;;;;12.38;7.18;;;12.20;67.20;;;;;;5093192;28;20131;-77
2021/03/02 12:12:25;;;;;;;12.52;7.47;;;12.30;66.50;;;;;;5112283;28;20054;-77
2021/03/02 12:14:52;;;;;;;13.70;7.60;;;12.40;65.70;;;;;;5111566;28;20053;-77
2021/03/02 12:17:19;;;;;;;11.95;6.90;;;12.50;65.30;;;;;;5111906;28;20424;-77
2021/03/02 12:19:46;;;;;;;12.63;7.07;;;12.80;65.20;;;;;;5111353;28;20044;-78
2021/03/02 12:22:13;;;;;;;11.45;6.40;;;12.90;64.90;;;;;;5110960;28;20096;-77
2021/03/02 12:24:39;;;;;;;11.77;6.72;;;13.10;64.70;;;;;;5111654;28;20055;-77
2021/03/02 12:27:07;;;;;;;12.90;6.63;;;13.20;63.20;;;;;;5111533;28;20497;-76
2021/03/02 12:29:33;;;;;;;11.23;6.15;;;13.40;62.00;;;;;;5113550;27;20485;-77
2021/03/02 12:32:00;;;;;;;10.55;6.07;;;13.60;60.30;;;;;;5111508;28;20515;-77
2021/03/02 12:34:27;;;;;;;12.40;6.72;;;13.60;59.70;;;;;;5111151;28;20152;-77
2021/03/02 12:36:56;;;;;;;12.18;7.50;;;13.80;59.30;;;;;;5111489;28;20067;-77
2021/03/02 12:39:22;;;;;;;12.90;7.40;;;14.00;58.00;;;;;;5111393;28;20097;-77
2021/03/02 12:41:49;;;;;;;12.38;7.68;;;14.20;56.70;;;;;;5114318;28;20082;-77
2021/03/02 12:44:15;;;;;;;11.30;6.38;;;14.30;55.60;;;;;;5114674;28;20072;-77
2021/03/02 12:46:42;;;;;;;10.25;6.43;;;14.50;55.90;;;;;;5111290;28;20058;-77
2021/03/02 12:49:09;;;;;;;12.10;6.40;;;14.70;55.50;;;;;;5110981;28;20043;-77
2021/03/02 12:51:36;;;;;;;12.40;6.97;;;14.90;54.40;;;;;;5111277;28;20130;-77
2021/03/02 12:54:03;;;;;;;10.05;5.70;;;15.10;50.40;;;;;;5111231;28;20055;-77
2021/03/02 12:56:30;;;;;;;11.88;6.63;;;15.20;49.50;;;;;;5111564;28;20052;-77
2021/03/02 12:58:56;;;;;;;12.52;6.60;;;15.40;49.40;;;;;;5111016;28;20047;-77
2021/03/02 13:01:24;;;;;;;10.45;6.88;;;15.60;49.50;;;;;;5110484;28;20134;-77